sensor_id;sensor_type;location;lat;lon;timestamp;pressure;altitude;pressure_sealevel;temperature;humidity
2675;BME280;1347;42.122;24.746;2023-03-23T00:01:46;99568.28;;;9.95;100.00
2675;BME280;1347;42.122;24.746;2023-03-23T00:04:15;99571.94;;;10.03;100.00
2675;BME280;1347;42.122;24.746;2023-03-23T00:06:43;99569.63;;;10.05;100.00
2675;BME280;1347;42.122;24.746;2023-03-23T00:09:11;99573.03;;;9.98;100.00
2675;BME280;1347;42.122;24.746;2023-03-23T00:11:41;99575.41;;;10.00;100.00
2675;BME280;1347;42.122;24.746;2023-03-23T00:14:09;99575.72;;;9.95;100.00
2675;BME280;1347;42.122;24.746;2023-03-23T00:16:39;99571.09;;;9.99;100.00
2675;BME280;1347;42.122;24.746;2023-03-23T00:19:07;99565.56;;;9.95;100.00
2675;BME280;1347;42.122;24.746;2023-03-23T00:21:37;99567.97;;;10.01;100.00
2675;BME280;1347;42.122;24.746;2023-03-23T00:24:07;99572.84;;;10.11;100.00
2675;BME280;1347;42.122;24.746;2023-03-23T00:26:36;99566.88;;;10.24;100.00
2675;BME280;1347;42.122;24.746;2023-03-23T00:29:07;99570.84;;;10.27;100.00
2675;BME280;1347;42.122;24.746;2023-03-23T00:31:38;99568.09;;;10.27;100.00
2675;BME280;1347;42.122;24.746;2023-03-23T00:34:06;99566.44;;;10.22;100.00
2675;BME280;1347;42.122;24.746;2023-03-23T00:36:34;99572.94;;;10.14;100.00
2675;BME280;1347;42.122;24.746;2023-03-23T00:39:09;99573.00;;;10.18;100.00
2675;BME280;1347;42.122;24.746;2023-03-23T00:41:37;99562.47;;;10.20;100.00
2675;BME280;1347;42.122;24.746;2023-03-23T00:44:04;99566.81;;;10.02;100.00
2675;BME280;1347;42.122;24.746;2023-03-23T00:46:34;99559.53;;;10.09;100.00
2675;BME280;1347;42.122;24.746;2023-03-23T00:49:11;99563.19;;;10.17;100.00
2675;BME280;1347;42.122;24.746;2023-03-23T00:51:39;99558.31;;;10.07;100.00
2675;BME280;1347;42.122;24.746;2023-03-23T00:54:06;99559.47;;;10.06;100.00
2675;BME280;1347;42.122;24.746;2023-03-23T00:56:34;99561.25;;;9.94;100.00
2675;BME280;1347;42.122;24.746;2023-03-23T00:59:02;99551.88;;;9.95;100.00
2675;BME280;1347;42.122;24.746;2023-03-23T01:01:29;99547.66;;;10.02;100.00
2675;BME280;1347;42.122;24.746;2023-03-23T01:03:57;99551.66;;;10.08;100.00
2675;BME280;1347;42.122;24.746;2023-03-23T01:06:26;99546.19;;;10.08;100.00
2675;BME280;1347;42.122;24.746;2023-03-23T01:08:54;99550.91;;;10.07;100.00
2675;BME280;1347;42.122;24.746;2023-03-23T01:11:22;99546.78;;;9.97;100.00
2675;BME280;1347;42.122;24.746;2023-03-23T01:13:50;99553.13;;;10.02;100.00
2675;BME280;1347;42.122;24.746;2023-03-23T01:16:18;99545.66;;;9.98;100.00
2675;BME280;1347;42.122;24.746;2023-03-23T01:18:45;99551.88;;;9.95;100.00
2675;BME280;1347;42.122;24.746;2023-03-23T01:21:13;99555.50;;;10.03;100.00
2675;BME280;1347;42.122;24.746;2023-03-23T01:23:41;99553.22;;;10.05;100.00
2675;BME280;1347;42.122;24.746;2023-03-23T01:26:10;99552.41;;;10.05;100.00
2675;BME280;1347;42.122;24.746;2023-03-23T01:28:38;99549.69;;;10.05;100.00
2675;BME280;1347;42.122;24.746;2023-03-23T01:31:09;99556.59;;;9.98;100.00
2675;BME280;1347;42.122;24.746;2023-03-23T01:33:37;99549.25;;;10.03;100.00
2675;BME280;1347;42.122;24.746;2023-03-23T01:36:06;99549.69;;;10.05;100.00
2675;BME280;1347;42.122;24.746;2023-03-23T01:38:34;99555.78;;;10.17;100.00
2675;BME280;1347;42.122;24.746;2023-03-23T01:41:01;99553.03;;;10.17;100.00
2675;BME280;1347;42.122;24.746;2023-03-23T01:43:29;99557.91;;;10.05;100.00
2675;BME280;1347;42.122;24.746;2023-03-23T01:45:56;99557.94;;;10.08;100.00
2675;BME280;1347;42.122;24.746;2023-03-23T01:48:26;99566.66;;;10.14;100.00
2675;BME280;1347;42.122;24.746;2023-03-23T01:50:58;99556.56;;;10.18;100.00
2675;BME280;1347;42.122;24.746;2023-03-23T01:53:29;99569.03;;;10.15;100.00
2675;BME280;1347;42.122;24.746;2023-03-23T01:55:58;99560.16;;;10.22;100.00
2675;BME280;1347;42.122;24.746;2023-03-23T01:58:29;99556.84;;;10.13;100.00
2675;BME280;1347;42.122;24.746;2023-03-23T02:00:58;99554.66;;;9.76;100.00
2675;BME280;1347;42.122;24.746;2023-03-23T02:03:29;99560.13;;;9.57;100.00
2675;BME280;1347;42.122;24.746;2023-03-23T02:05:57;99556.22;;;9.58;100.00
2675;BME280;1347;42.122;24.746;2023-03-23T02:08:26;99558.25;;;9.61;100.00
2675;BME280;1347;42.122;24.746;2023-03-23T02:10:54;99559.41;;;9.60;100.00
2675;BME280;1347;42.122;24.746;2023-03-23T02:13:21;99568.50;;;9.64;100.00
2675;BME280;1347;42.122;24.746;2023-03-23T02:15:55;99559.25;;;9.72;100.00
2675;BME280;1347;42.122;24.746;2023-03-23T02:18:38;99560.31;;;9.68;100.00
2675;BME280;1347;42.122;24.746;2023-03-23T02:21:25;99557.22;;;9.69;100.00
2675;BME280;1347;42.122;24.746;2023-03-23T02:24:30;99562.66;;;9.66;100.00
2675;BME280;1347;42.122;24.746;2023-03-23T02:27:03;99560.72;;;9.66;100.00
2675;BME280;1347;42.122;24.746;2023-03-23T02:29:56;99568.94;;;9.66;100.00
2675;BME280;1347;42.122;24.746;2023-03-23T02:32:44;99565.69;;;9.60;100.00
2675;BME280;1347;42.122;24.746;2023-03-23T02:35:18;99564.41;;;9.54;100.00
2675;BME280;1347;42.122;24.746;2023-03-23T02:37:49;99561.00;;;9.42;100.00
2675;BME280;1347;42.122;24.746;2023-03-23T02:40:21;99569.09;;;9.35;100.00
2675;BME280;1347;42.122;24.746;2023-03-23T02:42:53;99568.41;;;9.22;100.00
2675;BME280;1347;42.122;24.746;2023-03-23T02:45:21;99572.66;;;9.19;100.00
2675;BME280;1347;42.122;24.746;2023-03-23T02:47:54;99573.66;;;9.11;100.00
2675;BME280;1347;42.122;24.746;2023-03-23T02:50:24;99570.41;;;9.06;100.00
2675;BME280;1347;42.122;24.746;2023-03-23T02:52:55;99574.72;;;9.07;100.00
2675;BME280;1347;42.122;24.746;2023-03-23T02:55:24;99579.47;;;9.10;100.00
2675;BME280;1347;42.122;24.746;2023-03-23T02:57:54;99587.84;;;9.17;100.00
2675;BME280;1347;42.122;24.746;2023-03-23T03:00:21;99572.22;;;9.17;100.00
2675;BME280;1347;42.122;24.746;2023-03-23T03:02:50;99575.34;;;9.16;100.00
2675;BME280;1347;42.122;24.746;2023-03-23T03:05:28;99584.47;;;9.23;100.00
2675;BME280;1347;42.122;24.746;2023-03-23T03:08:04;99585.53;;;9.19;100.00
2675;BME280;1347;42.122;24.746;2023-03-23T03:10:37;99581.94;;;9.15;100.00
2675;BME280;1347;42.122;24.746;2023-03-23T03:13:12;99582.94;;;9.07;100.00
2675;BME280;1347;42.122;24.746;2023-03-23T03:15:45;99583.72;;;9.07;100.00
2675;BME280;1347;42.122;24.746;2023-03-23T03:18:18;99586.81;;;9.06;100.00
2675;BME280;1347;42.122;24.746;2023-03-23T03:20:50;99590.34;;;9.06;100.00
2675;BME280;1347;42.122;24.746;2023-03-23T03:23:21;99588.41;;;9.07;100.00
2675;BME280;1347;42.122;24.746;2023-03-23T03:25:50;99589.13;;;9.04;100.00
2675;BME280;1347;42.122;24.746;2023-03-23T03:28:19;99591.78;;;9.00;100.00
2675;BME280;1347;42.122;24.746;2023-03-23T03:30:48;99590.94;;;9.15;100.00
2675;BME280;1347;42.122;24.746;2023-03-23T03:33:19;99590.06;;;9.11;100.00
2675;BME280;1347;42.122;24.746;2023-03-23T03:35:53;99588.13;;;9.12;100.00
2675;BME280;1347;42.122;24.746;2023-03-23T03:38:21;99593.25;;;9.13;100.00
2675;BME280;1347;42.122;24.746;2023-03-23T03:40:48;99604.63;;;9.15;100.00
2675;BME280;1347;42.122;24.746;2023-03-23T03:43:15;99600.44;;;9.21;100.00
2675;BME280;1347;42.122;24.746;2023-03-23T03:45:42;99611.09;;;9.27;100.00
2675;BME280;1347;42.122;24.746;2023-03-23T03:48:09;99607.50;;;9.22;100.00
2675;BME280;1347;42.122;24.746;2023-03-23T03:50:36;99613.25;;;9.17;100.00
2675;BME280;1347;42.122;24.746;2023-03-23T03:53:05;99597.28;;;9.19;100.00
2675;BME280;1347;42.122;24.746;2023-03-23T03:55:32;99610.94;;;9.19;100.00
2675;BME280;1347;42.122;24.746;2023-03-23T03:58:01;99609.44;;;9.22;100.00
2675;BME280;1347;42.122;24.746;2023-03-23T04:00:29;99613.31;;;9.21;100.00
2675;BME280;1347;42.122;24.746;2023-03-23T04:02:56;99611.81;;;9.23;100.00
2675;BME280;1347;42.122;24.746;2023-03-23T04:05:25;99605.69;;;9.30;100.00
2675;BME280;1347;42.122;24.746;2023-03-23T04:07:54;99613.13;;;9.30;100.00
2675;BME280;1347;42.122;24.746;2023-03-23T04:10:28;99611.88;;;9.27;100.00
2675;BME280;1347;42.122;24.746;2023-03-23T04:12:56;99615.50;;;9.31;100.00
2675;BME280;1347;42.122;24.746;2023-03-23T04:15:23;99617.00;;;9.29;100.00
2675;BME280;1347;42.122;24.746;2023-03-23T04:17:50;99616.22;;;9.28;100.00
2675;BME280;1347;42.122;24.746;2023-03-23T04:20:18;99611.81;;;9.23;100.00
2675;BME280;1347;42.122;24.746;2023-03-23T04:22:45;99618.09;;;9.24;100.00
2675;BME280;1347;42.122;24.746;2023-03-23T04:25:16;99624.56;;;9.16;100.00
2675;BME280;1347;42.122;24.746;2023-03-23T04:27:48;99626.28;;;9.24;100.00
2675;BME280;1347;42.122;24.746;2023-03-23T04:30:19;99618.94;;;9.28;100.00
2675;BME280;1347;42.122;24.746;2023-03-23T04:32:48;99623.72;;;9.31;100.00
2675;BME280;1347;42.122;24.746;2023-03-23T04:35:18;99622.97;;;9.15;100.00
2675;BME280;1347;42.122;24.746;2023-03-23T04:37:46;99627.41;;;8.88;100.00
2675;BME280;1347;42.122;24.746;2023-03-23T04:40:14;99620.50;;;8.75;100.00
2675;BME280;1347;42.122;24.746;2023-03-23T04:42:41;99619.25;;;8.72;100.00
2675;BME280;1347;42.122;24.746;2023-03-23T04:45:14;99616.78;;;8.67;100.00
2675;BME280;1347;42.122;24.746;2023-03-23T04:47:42;99619.97;;;8.54;100.00
2675;BME280;1347;42.122;24.746;2023-03-23T04:50:19;99621.84;;;8.34;100.00
2675;BME280;1347;42.122;24.746;2023-03-23T04:52:46;99627.91;;;8.43;100.00
2675;BME280;1347;42.122;24.746;2023-03-23T04:55:14;99633.09;;;8.48;100.00
2675;BME280;1347;42.122;24.746;2023-03-23T04:57:41;99622.53;;;8.62;100.00
2675;BME280;1347;42.122;24.746;2023-03-23T05:00:09;99623.94;;;8.72;100.00
2675;BME280;1347;42.122;24.746;2023-03-23T05:02:41;99622.75;;;8.89;100.00
2675;BME280;1347;42.122;24.746;2023-03-23T05:05:10;99618.66;;;8.98;100.00
2675;BME280;1347;42.122;24.746;2023-03-23T05:07:37;99626.06;;;9.13;100.00
2675;BME280;1347;42.122;24.746;2023-03-23T05:10:06;99625.50;;;9.23;100.00
2675;BME280;1347;42.122;24.746;2023-03-23T05:12:33;99621.31;;;9.30;100.00
2675;BME280;1347;42.122;24.746;2023-03-23T05:15:00;99633.38;;;9.44;100.00
2675;BME280;1347;42.122;24.746;2023-03-23T05:17:27;99628.47;;;9.53;100.00
2675;BME280;1347;42.122;24.746;2023-03-23T05:19:57;99638.50;;;9.46;100.00
2675;BME280;1347;42.122;24.746;2023-03-23T05:22:26;99637.19;;;9.59;100.00
2675;BME280;1347;42.122;24.746;2023-03-23T05:24:53;99642.97;;;9.73;100.00
2675;BME280;1347;42.122;24.746;2023-03-23T05:27:20;99638.13;;;9.86;100.00
2675;BME280;1347;42.122;24.746;2023-03-23T05:29:47;99644.66;;;10.01;100.00
2675;BME280;1347;42.122;24.746;2023-03-23T05:32:15;99638.22;;;10.12;100.00
2675;BME280;1347;42.122;24.746;2023-03-23T05:34:42;99649.28;;;9.96;100.00
2675;BME280;1347;42.122;24.746;2023-03-23T05:37:11;99655.38;;;10.09;100.00
2675;BME280;1347;42.122;24.746;2023-03-23T05:39:39;99655.50;;;9.93;100.00
2675;BME280;1347;42.122;24.746;2023-03-23T05:42:06;99656.97;;;10.10;100.00
2675;BME280;1347;42.122;24.746;2023-03-23T05:44:34;99668.44;;;10.16;100.00
2675;BME280;1347;42.122;24.746;2023-03-23T05:47:01;99672.84;;;10.20;100.00
2675;BME280;1347;42.122;24.746;2023-03-23T05:49:28;99670.19;;;10.24;100.00
2675;BME280;1347;42.122;24.746;2023-03-23T05:51:55;99664.78;;;10.27;100.00
2675;BME280;1347;42.122;24.746;2023-03-23T05:54:23;99662.22;;;10.38;100.00
2675;BME280;1347;42.122;24.746;2023-03-23T05:56:51;99676.06;;;10.45;100.00
2675;BME280;1347;42.122;24.746;2023-03-23T05:59:18;99681.97;;;10.47;100.00
2675;BME280;1347;42.122;24.746;2023-03-23T06:01:44;99687.19;;;10.56;100.00
2675;BME280;1347;42.122;24.746;2023-03-23T06:04:11;99690.41;;;10.61;100.00
2675;BME280;1347;42.122;24.746;2023-03-23T06:06:39;99692.88;;;10.66;100.00
2675;BME280;1347;42.122;24.746;2023-03-23T06:09:07;99692.69;;;10.79;100.00
2675;BME280;1347;42.122;24.746;2023-03-23T06:11:35;99689.25;;;10.62;100.00
2675;BME280;1347;42.122;24.746;2023-03-23T06:14:02;99700.59;;;10.84;100.00
2675;BME280;1347;42.122;24.746;2023-03-23T06:16:29;99700.53;;;10.80;100.00
2675;BME280;1347;42.122;24.746;2023-03-23T06:18:56;99702.44;;;10.99;100.00
2675;BME280;1347;42.122;24.746;2023-03-23T06:21:26;99704.16;;;11.11;100.00
2675;BME280;1347;42.122;24.746;2023-03-23T06:23:53;99698.38;;;11.16;100.00
2675;BME280;1347;42.122;24.746;2023-03-23T06:26:24;99694.56;;;11.24;100.00
2675;BME280;1347;42.122;24.746;2023-03-23T06:28:54;99702.78;;;11.24;100.00
2675;BME280;1347;42.122;24.746;2023-03-23T06:31:21;99701.63;;;11.25;100.00
2675;BME280;1347;42.122;24.746;2023-03-23T06:33:48;99702.53;;;11.32;100.00
2675;BME280;1347;42.122;24.746;2023-03-23T06:36:15;99709.50;;;11.26;99.32
2675;BME280;1347;42.122;24.746;2023-03-23T06:38:43;99704.19;;;10.88;100.00
2675;BME280;1347;42.122;24.746;2023-03-23T06:41:10;99714.13;;;10.73;100.00
2675;BME280;1347;42.122;24.746;2023-03-23T06:43:37;99718.44;;;10.51;100.00
2675;BME280;1347;42.122;24.746;2023-03-23T06:46:06;99713.50;;;10.38;100.00
2675;BME280;1347;42.122;24.746;2023-03-23T06:48:33;99714.69;;;10.40;100.00
2675;BME280;1347;42.122;24.746;2023-03-23T06:51:01;99719.38;;;10.40;100.00
2675;BME280;1347;42.122;24.746;2023-03-23T06:53:27;99718.78;;;10.50;100.00
2675;BME280;1347;42.122;24.746;2023-03-23T06:55:54;99713.34;;;10.73;100.00
2675;BME280;1347;42.122;24.746;2023-03-23T06:58:21;99713.06;;;11.04;100.00
2675;BME280;1347;42.122;24.746;2023-03-23T07:00:53;99711.16;;;11.61;100.00
2675;BME280;1347;42.122;24.746;2023-03-23T07:03:23;99718.19;;;12.92;96.19
2675;BME280;1347;42.122;24.746;2023-03-23T07:05:50;99727.66;;;14.29;89.13
2675;BME280;1347;42.122;24.746;2023-03-23T07:08:17;99728.53;;;15.82;83.96
2675;BME280;1347;42.122;24.746;2023-03-23T07:10:44;99736.19;;;17.10;76.39
2675;BME280;1347;42.122;24.746;2023-03-23T07:13:11;99736.72;;;17.80;71.92
2675;BME280;1347;42.122;24.746;2023-03-23T07:15:39;99737.97;;;17.75;70.29
2675;BME280;1347;42.122;24.746;2023-03-23T07:18:06;99742.75;;;17.26;73.05
2675;BME280;1347;42.122;24.746;2023-03-23T07:20:34;99740.13;;;18.59;68.93
2675;BME280;1347;42.122;24.746;2023-03-23T07:23:01;99735.69;;;20.05;64.95
2675;BME280;1347;42.122;24.746;2023-03-23T07:25:30;99742.34;;;22.63;59.61
2675;BME280;1347;42.122;24.746;2023-03-23T07:27:58;99732.63;;;24.53;50.30
2675;BME280;1347;42.122;24.746;2023-03-23T07:30:25;99736.53;;;25.26;48.25
2675;BME280;1347;42.122;24.746;2023-03-23T07:32:54;99743.47;;;27.19;43.75
2675;BME280;1347;42.122;24.746;2023-03-23T07:35:21;99743.00;;;28.95;41.44
2675;BME280;1347;42.122;24.746;2023-03-23T07:37:50;99746.22;;;29.78;38.29
2675;BME280;1347;42.122;24.746;2023-03-23T07:40:17;99739.41;;;30.11;37.57
2675;BME280;1347;42.122;24.746;2023-03-23T07:42:46;99737.78;;;31.72;35.17
2675;BME280;1347;42.122;24.746;2023-03-23T07:45:15;99739.22;;;32.16;33.36
2675;BME280;1347;42.122;24.746;2023-03-23T07:47:42;99737.19;;;32.39;33.94
2675;BME280;1347;42.122;24.746;2023-03-23T07:50:10;99736.94;;;33.89;31.54
2675;BME280;1347;42.122;24.746;2023-03-23T07:52:37;99737.88;;;34.74;31.02
2675;BME280;1347;42.122;24.746;2023-03-23T07:55:08;99738.75;;;33.87;31.65
2675;BME280;1347;42.122;24.746;2023-03-23T07:57:36;99734.63;;;34.64;30.43
2675;BME280;1347;42.122;24.746;2023-03-23T08:00:06;99736.03;;;35.55;28.89
2675;BME280;1347;42.122;24.746;2023-03-23T08:02:37;99732.94;;;34.09;31.54
2675;BME280;1347;42.122;24.746;2023-03-23T08:05:05;99734.53;;;33.41;31.25
2675;BME280;1347;42.122;24.746;2023-03-23T08:07:33;99737.97;;;32.39;31.62
2675;BME280;1347;42.122;24.746;2023-03-23T08:10:00;99736.06;;;28.17;38.19
2675;BME280;1347;42.122;24.746;2023-03-23T08:12:28;99736.47;;;26.72;40.77
2675;BME280;1347;42.122;24.746;2023-03-23T08:14:55;99737.00;;;27.52;41.41
2675;BME280;1347;42.122;24.746;2023-03-23T08:17:22;99726.63;;;29.34;38.13
2675;BME280;1347;42.122;24.746;2023-03-23T08:19:49;99737.41;;;29.15;37.82
2675;BME280;1347;42.122;24.746;2023-03-23T08:22:18;99728.50;;;30.87;35.22
2675;BME280;1347;42.122;24.746;2023-03-23T08:24:45;99735.75;;;28.59;36.52
2675;BME280;1347;42.122;24.746;2023-03-23T08:27:12;99736.06;;;27.55;39.48
2675;BME280;1347;42.122;24.746;2023-03-23T08:29:40;99726.63;;;25.98;43.05
2675;BME280;1347;42.122;24.746;2023-03-23T08:32:07;99716.91;;;26.36;41.72
2675;BME280;1347;42.122;24.746;2023-03-23T08:34:34;99722.13;;;27.51;40.01
2675;BME280;1347;42.122;24.746;2023-03-23T08:37:01;99723.66;;;30.30;35.68
2675;BME280;1347;42.122;24.746;2023-03-23T08:39:28;99725.56;;;32.59;32.71
2675;BME280;1347;42.122;24.746;2023-03-23T08:41:56;99723.75;;;32.28;32.61
2675;BME280;1347;42.122;24.746;2023-03-23T08:44:23;99720.09;;;29.43;33.15
2675;BME280;1347;42.122;24.746;2023-03-23T08:46:51;99719.09;;;31.43;33.06
2675;BME280;1347;42.122;24.746;2023-03-23T08:49:22;99716.16;;;31.80;32.37
2675;BME280;1347;42.122;24.746;2023-03-23T08:51:48;99722.34;;;34.04;30.02
2675;BME280;1347;42.122;24.746;2023-03-23T08:54:15;99723.25;;;32.58;30.97
2675;BME280;1347;42.122;24.746;2023-03-23T08:56:42;99730.72;;;35.46;28.00
2675;BME280;1347;42.122;24.746;2023-03-23T08:59:09;99731.03;;;32.85;30.41
2675;BME280;1347;42.122;24.746;2023-03-23T09:01:36;99721.88;;;30.58;33.20
2675;BME280;1347;42.122;24.746;2023-03-23T09:04:05;99715.94;;;30.30;34.18
2675;BME280;1347;42.122;24.746;2023-03-23T09:06:34;99723.97;;;33.36;30.61
2675;BME280;1347;42.122;24.746;2023-03-23T09:09:02;99729.28;;;34.14;29.38
2675;BME280;1347;42.122;24.746;2023-03-23T09:11:32;99726.34;;;33.04;30.50
2675;BME280;1347;42.122;24.746;2023-03-23T09:14:00;99721.44;;;32.49;30.66
2675;BME280;1347;42.122;24.746;2023-03-23T09:16:27;99715.75;;;32.99;29.86
2675;BME280;1347;42.122;24.746;2023-03-23T09:18:54;99723.13;;;36.29;27.87
2675;BME280;1347;42.122;24.746;2023-03-23T09:21:23;99723.28;;;39.54;23.76
2675;BME280;1347;42.122;24.746;2023-03-23T09:23:51;99718.72;;;39.58;23.82
2675;BME280;1347;42.122;24.746;2023-03-23T09:26:18;99715.34;;;41.88;22.61
2675;BME280;1347;42.122;24.746;2023-03-23T09:28:45;99709.25;;;40.37;23.17
2675;BME280;1347;42.122;24.746;2023-03-23T09:31:12;99705.94;;;40.26;23.82
2675;BME280;1347;42.122;24.746;2023-03-23T09:33:39;99696.53;;;40.10;23.59
2675;BME280;1347;42.122;24.746;2023-03-23T09:36:06;99696.25;;;38.22;24.65
2675;BME280;1347;42.122;24.746;2023-03-23T09:38:39;99695.97;;;35.66;26.03
2675;BME280;1347;42.122;24.746;2023-03-23T09:41:19;99684.34;;;33.49;28.13
2675;BME280;1347;42.122;24.746;2023-03-23T09:44:01;99697.63;;;33.19;28.03
2675;BME280;1347;42.122;24.746;2023-03-23T09:46:41;99684.56;;;32.38;28.94
2675;BME280;1347;42.122;24.746;2023-03-23T09:49:14;99683.78;;;31.33;30.12
2675;BME280;1347;42.122;24.746;2023-03-23T09:51:44;99687.97;;;30.38;30.40
2675;BME280;1347;42.122;24.746;2023-03-23T09:54:19;99680.56;;;27.70;32.19
2675;BME280;1347;42.122;24.746;2023-03-23T09:56:49;99671.53;;;25.46;35.81
2675;BME280;1347;42.122;24.746;2023-03-23T09:59:20;99675.31;;;23.23;39.39
2675;BME280;1347;42.122;24.746;2023-03-23T10:01:51;99667.63;;;21.72;41.74
2675;BME280;1347;42.122;24.746;2023-03-23T10:04:30;99670.63;;;21.19;43.39
2675;BME280;1347;42.122;24.746;2023-03-23T10:07:00;99675.13;;;23.52;40.99
2675;BME280;1347;42.122;24.746;2023-03-23T10:09:33;99667.19;;;25.82;36.83
2675;BME280;1347;42.122;24.746;2023-03-23T10:12:04;99666.41;;;24.37;38.81
2675;BME280;1347;42.122;24.746;2023-03-23T10:14:44;99659.53;;;24.69;38.54
2675;BME280;1347;42.122;24.746;2023-03-23T10:17:15;99671.25;;;26.92;35.32
2675;BME280;1347;42.122;24.746;2023-03-23T10:19:48;99665.56;;;29.16;32.11
2675;BME280;1347;42.122;24.746;2023-03-23T10:22:22;99674.75;;;32.50;29.23
2675;BME280;1347;42.122;24.746;2023-03-23T10:24:58;99669.69;;;35.12;26.84
2675;BME280;1347;42.122;24.746;2023-03-23T10:27:33;99675.88;;;37.32;25.32
2675;BME280;1347;42.122;24.746;2023-03-23T10:30:03;99673.66;;;37.38;24.65
2675;BME280;1347;42.122;24.746;2023-03-23T10:32:44;99669.25;;;38.80;23.50
2675;BME280;1347;42.122;24.746;2023-03-23T10:35:18;99671.25;;;40.08;22.10
2675;BME280;1347;42.122;24.746;2023-03-23T10:37:49;99662.50;;;39.27;23.46
2675;BME280;1347;42.122;24.746;2023-03-23T10:40:23;99673.41;;;36.38;25.46
2675;BME280;1347;42.122;24.746;2023-03-23T10:42:52;99653.13;;;33.90;25.23
2675;BME280;1347;42.122;24.746;2023-03-23T10:45:21;99652.06;;;32.33;26.57
2675;BME280;1347;42.122;24.746;2023-03-23T10:47:53;99651.00;;;30.79;28.14
2675;BME280;1347;42.122;24.746;2023-03-23T10:50:24;99637.25;;;28.90;29.18
2675;BME280;1347;42.122;24.746;2023-03-23T10:52:55;99644.06;;;25.87;32.06
2675;BME280;1347;42.122;24.746;2023-03-23T10:55:35;99629.22;;;26.05;33.01
2675;BME280;1347;42.122;24.746;2023-03-23T10:58:05;99643.66;;;26.72;32.57
2675;BME280;1347;42.122;24.746;2023-03-23T11:00:32;99635.59;;;26.89;32.97
2675;BME280;1347;42.122;24.746;2023-03-23T11:03:02;99630.06;;;27.28;32.10
2675;BME280;1347;42.122;24.746;2023-03-23T11:05:35;99635.00;;;27.71;32.97
2675;BME280;1347;42.122;24.746;2023-03-23T11:08:03;99630.22;;;26.67;33.72
2675;BME280;1347;42.122;24.746;2023-03-23T11:10:41;99626.56;;;24.11;37.02
2675;BME280;1347;42.122;24.746;2023-03-23T11:13:12;99634.94;;;23.24;37.90
2675;BME280;1347;42.122;24.746;2023-03-23T11:15:41;99623.25;;;23.38;39.32
2675;BME280;1347;42.122;24.746;2023-03-23T11:18:11;99613.91;;;23.54;38.41
2675;BME280;1347;42.122;24.746;2023-03-23T11:20:41;99615.88;;;23.10;38.86
2675;BME280;1347;42.122;24.746;2023-03-23T11:23:10;99615.88;;;21.83;39.89
2675;BME280;1347;42.122;24.746;2023-03-23T11:25:55;99614.97;;;21.45;41.62
2675;BME280;1347;42.122;24.746;2023-03-23T11:28:27;99614.50;;;21.34;42.47
2675;BME280;1347;42.122;24.746;2023-03-23T11:30:57;99617.38;;;20.98;42.93
2675;BME280;1347;42.122;24.746;2023-03-23T11:33:28;99611.59;;;20.60;43.39
2675;BME280;1347;42.122;24.746;2023-03-23T11:35:55;99610.94;;;20.00;44.52
2675;BME280;1347;42.122;24.746;2023-03-23T11:38:24;99607.75;;;20.01;44.21
2675;BME280;1347;42.122;24.746;2023-03-23T11:40:55;99608.47;;;19.85;44.48
2675;BME280;1347;42.122;24.746;2023-03-23T11:43:23;99603.00;;;19.62;45.50
2675;BME280;1347;42.122;24.746;2023-03-23T11:45:58;99607.44;;;19.96;45.55
2675;BME280;1347;42.122;24.746;2023-03-23T11:48:31;99607.78;;;19.81;45.46
2675;BME280;1347;42.122;24.746;2023-03-23T11:51:02;99608.38;;;19.73;46.29
2675;BME280;1347;42.122;24.746;2023-03-23T11:53:37;99597.66;;;20.07;45.61
2675;BME280;1347;42.122;24.746;2023-03-23T11:56:17;99596.88;;;20.43;46.34
2675;BME280;1347;42.122;24.746;2023-03-23T11:58:46;99602.34;;;20.46;47.71
2675;BME280;1347;42.122;24.746;2023-03-23T12:01:24;99593.50;;;20.15;48.19
2675;BME280;1347;42.122;24.746;2023-03-23T12:04:19;99594.75;;;20.31;48.66
2675;BME280;1347;42.122;24.746;2023-03-23T12:06:54;99594.16;;;20.39;48.82
2675;BME280;1347;42.122;24.746;2023-03-23T12:09:34;99593.03;;;20.37;48.81
2675;BME280;1347;42.122;24.746;2023-03-23T12:12:14;99591.50;;;20.16;49.52
2675;BME280;1347;42.122;24.746;2023-03-23T12:14:51;99586.91;;;20.26;48.75
2675;BME280;1347;42.122;24.746;2023-03-23T12:17:28;99588.16;;;20.57;48.27
2675;BME280;1347;42.122;24.746;2023-03-23T12:20:06;99587.91;;;20.68;47.80
2675;BME280;1347;42.122;24.746;2023-03-23T12:22:48;99589.25;;;21.08;47.48
2675;BME280;1347;42.122;24.746;2023-03-23T12:25:50;99588.03;;;21.25;47.36
2675;BME280;1347;42.122;24.746;2023-03-23T12:28:29;99588.72;;;21.71;45.31
2675;BME280;1347;42.122;24.746;2023-03-23T12:31:02;99584.81;;;21.11;46.96
2675;BME280;1347;42.122;24.746;2023-03-23T12:33:42;99588.78;;;20.81;47.53
2675;BME280;1347;42.122;24.746;2023-03-23T12:36:21;99582.34;;;20.84;47.34
2675;BME280;1347;42.122;24.746;2023-03-23T12:41:51;99587.59;;;21.27;46.43
2675;BME280;1347;42.122;24.746;2023-03-23T12:44:27;99590.28;;;20.53;47.73
2675;BME280;1347;42.122;24.746;2023-03-23T12:47:04;99580.41;;;19.96;48.46
2675;BME280;1347;42.122;24.746;2023-03-23T12:49:37;99588.34;;;19.98;48.97
2675;BME280;1347;42.122;24.746;2023-03-23T12:52:15;99578.47;;;20.29;48.09
2675;BME280;1347;42.122;24.746;2023-03-23T12:54:47;99580.09;;;20.63;47.52
2675;BME280;1347;42.122;24.746;2023-03-23T12:57:22;99569.56;;;21.15;46.62
2675;BME280;1347;42.122;24.746;2023-03-23T12:59:57;99585.31;;;21.51;45.80
2675;BME280;1347;42.122;24.746;2023-03-23T13:02:33;99586.41;;;21.41;46.17
2675;BME280;1347;42.122;24.746;2023-03-23T13:05:04;99581.47;;;21.32;45.59
2675;BME280;1347;42.122;24.746;2023-03-23T13:07:37;99572.44;;;21.12;45.98
2675;BME280;1347;42.122;24.746;2023-03-23T13:10:15;99578.44;;;21.68;45.31
2675;BME280;1347;42.122;24.746;2023-03-23T13:12:45;99579.28;;;22.45;44.16
2675;BME280;1347;42.122;24.746;2023-03-23T13:15:23;99576.00;;;22.84;42.48
2675;BME280;1347;42.122;24.746;2023-03-23T13:17:56;99574.56;;;22.67;42.97
2675;BME280;1347;42.122;24.746;2023-03-23T13:20:46;99571.50;;;23.43;42.29
2675;BME280;1347;42.122;24.746;2023-03-23T13:23:19;99572.84;;;24.04;40.86
2675;BME280;1347;42.122;24.746;2023-03-23T13:25:51;99565.53;;;23.75;41.14
2675;BME280;1347;42.122;24.746;2023-03-23T13:28:19;99563.88;;;23.56;41.46